Time;durP1;ratioP1;P1;durP2;ratioP2;P2;SDS_P1;SDS_P2;PMS_P1;PMS_P2;Temp;Humidity;BMP_temperature;BMP_pressure;BME280_temperature;BME280_humidity;BME280_pressure;Samples;Min_cycle;Max_cycle;Signal;HPM_P1;HPM_P2
2022/04/16 00:02:19;;;;;;;6.57;3.80;;;;;;;13.30;56.67;101744.56;5084472;28;20200;-73
2022/04/16 00:04:47;;;;;;;6.03;3.63;;;;;;;13.29;56.57;101740.22;5086403;28;20204;-73
2022/04/16 00:07:15;;;;;;;5.23;3.40;;;;;;;13.27;56.88;101723.56;5088052;28;20203;-74
2022/04/16 00:09:42;;;;;;;7.47;3.90;;;;;;;13.16;56.76;101728.97;5087921;28;20897;-74
2022/04/16 00:12:10;;;;;;;5.13;3.20;;;;;;;13.09;57.24;101728.63;5088446;28;20282;-75
2022/04/16 00:14:39;;;;;;;5.67;3.70;;;;;;;13.13;57.48;101724.75;5084751;28;20230;-75
2022/04/16 00:17:08;;;;;;;6.07;4.10;;;;;;;13.13;57.10;101731.84;5086410;28;20195;-75
2022/04/16 00:19:36;;;;;;;4.63;3.43;;;;;;;13.24;56.64;101730.97;5090708;28;20648;-75
2022/04/16 00:22:07;;;;;;;4.83;3.30;;;;;;;13.07;57.46;101727.06;5086115;28;20298;-76
2022/04/16 00:24:36;;;;;;;4.90;3.70;;;;;;;13.16;56.87;101729.81;5085115;28;20728;-76
2022/04/16 00:27:04;;;;;;;5.03;3.40;;;;;;;13.10;57.40;101725.00;5087181;28;20214;-74
2022/04/16 00:29:32;;;;;;;5.37;3.83;;;;;;;13.06;57.53;101723.56;5086558;28;20208;-74
2022/04/16 00:32:03;;;;;;;6.40;3.70;;;;;;;13.04;57.42;101724.66;5088276;28;20219;-74
2022/04/16 00:34:31;;;;;;;5.77;3.73;;;;;;;13.05;57.19;101729.88;5085915;28;20264;-74
2022/04/16 00:36:59;;;;;;;5.80;3.70;;;;;;;13.09;57.15;101725.97;5084498;28;20251;-74
2022/04/16 00:39:27;;;;;;;5.00;3.57;;;;;;;12.95;57.58;101728.97;5086386;28;20554;-73
2022/04/16 00:41:55;;;;;;;5.03;3.50;;;;;;;13.00;57.71;101731.25;5089496;28;20230;-73
2022/04/16 00:44:23;;;;;;;6.33;3.70;;;;;;;12.90;58.04;101728.53;5088747;28;20213;-73
2022/04/16 00:46:51;;;;;;;5.87;3.80;;;;;;;12.88;57.82;101727.81;5087406;28;20200;-73
2022/04/16 00:49:21;;;;;;;5.67;3.80;;;;;;;12.81;58.18;101724.84;5090366;28;20213;-74
2022/04/16 00:51:50;;;;;;;5.57;3.80;;;;;;;12.77;57.60;101722.56;5088306;28;20535;-74
2022/04/16 00:54:19;;;;;;;5.40;3.70;;;;;;;12.76;58.14;101729.72;5086564;28;20243;-71
2022/04/16 00:56:47;;;;;;;5.67;3.50;;;;;;;12.76;57.80;101735.03;5086447;28;20318;-72
2022/04/16 00:59:45;;;;;;;5.30;3.73;;;;;;;12.70;58.39;101734.72;5091612;28;20234;-72
2022/04/16 01:02:13;;;;;;;6.13;4.00;;;;;;;12.79;57.91;101739.25;5081526;28;20219;-71
2022/04/16 01:04:43;;;;;;;6.07;4.00;;;;;;;12.56;59.00;101740.41;5085747;28;20221;-72
2022/04/16 01:07:11;;;;;;;5.27;3.87;;;;;;;12.67;58.63;101740.31;5089112;28;20203;-72
2022/04/16 01:09:39;;;;;;;6.73;3.77;;;;;;;12.75;58.30;101748.50;5088113;28;20377;-72
2022/04/16 01:12:08;;;;;;;5.33;3.87;;;;;;;12.72;58.25;101743.44;5085000;28;20211;-72
2022/04/16 01:14:38;;;;;;;7.50;4.07;;;;;;;12.68;58.40;101748.16;5086056;28;20230;-72
2022/04/16 01:17:06;;;;;;;6.00;3.93;;;;;;;12.73;58.20;101748.63;5085580;28;20238;-72
2022/04/16 01:19:37;;;;;;;5.37;3.70;;;;;;;12.70;58.56;101740.91;5086165;28;20214;-72
2022/04/16 01:22:07;;;;;;;7.07;4.23;;;;;;;12.42;59.33;101742.38;5088284;28;21814;-72
2022/04/16 01:24:37;;;;;;;6.63;4.50;;;;;;;12.69;58.46;101743.69;5086176;28;20286;-76
2022/04/16 01:27:05;;;;;;;6.60;4.07;;;;;;;12.67;58.52;101742.97;5084259;28;20223;-74
2022/04/16 01:29:33;;;;;;;8.03;4.50;;;;;;;12.59;58.74;101734.78;5087915;28;20242;-74
2022/04/16 01:32:00;;;;;;;6.20;4.07;;;;;;;12.55;58.87;101741.38;5089484;28;20219;-73
2022/04/16 01:34:29;;;;;;;6.10;3.83;;;;;;;12.37;59.59;101749.09;5086080;28;20243;-73
2022/04/16 01:37:02;;;;;;;5.47;3.63;;;;;;;12.47;59.32;101746.50;5086024;28;20262;-74
2022/04/16 01:39:30;;;;;;;6.83;3.90;;;;;;;12.39;59.37;101740.00;5086986;28;20256;-73
2022/04/16 01:42:00;;;;;;;5.83;3.90;;;;;;;12.44;59.18;101748.44;5088293;28;20297;-74
2022/04/16 01:44:29;;;;;;;5.30;3.70;;;;;;;12.48;59.06;101745.53;5088819;28;20203;-73
2022/04/16 01:46:57;;;;;;;4.90;3.70;;;;;;;12.43;59.22;101738.75;5082737;28;20316;-73
2022/04/16 01:49:24;;;;;;;7.10;4.03;;;;;;;12.31;59.81;101738.97;5084569;28;20293;-73
2022/04/16 01:51:54;;;;;;;5.57;3.93;;;;;;;12.28;59.86;101742.72;5088705;28;20240;-74
2022/04/16 01:54:22;;;;;;;5.77;3.73;;;;;;;12.27;60.29;101741.03;5084638;28;20241;-72
2022/04/16 01:56:50;;;;;;;6.37;4.10;;;;;;;12.21;60.36;101744.22;5088783;28;20321;-73
2022/04/16 01:59:19;;;;;;;6.87;4.20;;;;;;;12.42;59.88;101741.53;5084492;28;20211;-72
2022/04/16 02:01:47;;;;;;;7.10;4.27;;;;;;;12.55;59.52;101744.03;5085779;28;20310;-73
2022/04/16 02:04:15;;;;;;;7.17;4.50;;;;;;;12.33;60.38;101737.00;5085561;28;20876;-74
2022/04/16 02:06:43;;;;;;;7.83;4.43;;;;;;;12.11;61.18;101748.59;5086187;28;20584;-73
2022/04/16 02:09:11;;;;;;;6.30;4.50;;;;;;;12.21;60.52;101733.56;5083003;28;20396;-75
2022/04/16 02:11:39;;;;;;;7.63;4.33;;;;;;;12.01;61.19;101737.88;5086311;28;20489;-74
2022/04/16 02:14:06;;;;;;;7.77;4.53;;;;;;;12.23;61.07;101734.25;5085406;28;20261;-75
2022/04/16 02:16:36;;;;;;;5.83;4.10;;;;;;;12.31;61.01;101741.63;5083626;28;20226;-72
2022/04/16 02:19:06;;;;;;;5.80;4.10;;;;;;;12.37;60.79;101749.94;5081438;28;20210;-72
2022/04/16 02:21:35;;;;;;;7.70;5.13;;;;;;;12.30;61.22;101740.78;5082269;28;20598;-73
2022/04/16 02:24:03;;;;;;;8.43;4.57;;;;;;;12.54;60.23;101747.66;5080832;28;20263;-73
2022/04/16 02:26:31;;;;;;;7.40;4.60;;;;;;;12.52;60.76;101741.63;5085914;28;20264;-72
2022/04/16 02:28:59;;;;;;;6.87;3.70;;;;;;;12.34;61.25;101728.88;5083615;28;20207;-73
2022/04/16 02:31:27;;;;;;;5.93;4.13;;;;;;;12.58;60.30;101731.28;5084599;28;20726;-74
2022/04/16 02:33:56;;;;;;;6.87;3.93;;;;;;;12.66;60.63;101728.00;5084083;28;20214;-72
2022/04/16 02:36:25;;;;;;;7.80;5.03;;;;;;;12.65;60.57;101721.81;5087739;28;20223;-72
2022/04/16 02:38:54;;;;;;;8.20;4.97;;;;;;;12.75;60.38;101719.22;5086962;28;20199;-72
2022/04/16 02:41:22;;;;;;;7.07;4.30;;;;;;;12.74;60.17;101725.53;5082810;28;20215;-72
2022/04/16 02:43:50;;;;;;;6.47;4.37;;;;;;;12.21;61.78;101736.22;5085593;28;20302;-73
2022/04/16 02:49:05;;;;;;;6.60;4.27;;;;;;;12.51;60.99;101729.28;5084662;28;20298;-73
2022/04/16 02:51:35;;;;;;;5.33;3.93;;;;;;;12.48;60.83;101730.41;5085346;28;20210;-73
2022/04/16 02:54:03;;;;;;;7.93;4.80;;;;;;;12.52;60.68;101736.28;5083133;28;20329;-73
2022/04/16 02:56:31;;;;;;;7.77;4.50;;;;;;;12.49;60.81;101734.72;5082392;28;20670;-73
2022/04/16 02:58:59;;;;;;;7.17;4.27;;;;;;;12.60;60.37;101734.66;5081141;28;20199;-73
2022/04/16 03:01:27;;;;;;;5.80;4.57;;;;;;;12.18;61.86;101728.50;5082962;28;20266;-73
2022/04/16 03:03:55;;;;;;;7.50;4.53;;;;;;;12.40;61.61;101740.84;5082940;28;20593;-73
2022/04/16 03:06:24;;;;;;;9.47;4.43;;;;;;;12.64;60.99;101745.91;5083269;28;20238;-73
2022/04/16 03:08:52;;;;;;;7.33;4.10;;;;;;;12.68;60.76;101742.84;5085549;28;20214;-73
2022/04/16 03:11:22;;;;;;;9.27;4.90;;;;;;;12.35;61.94;101746.53;5084896;28;20710;-72
2022/04/16 03:13:50;;;;;;;7.50;4.70;;;;;;;12.67;61.33;101750.94;5091509;28;20305;-72
2022/04/16 03:19:04;;;;;;;7.73;4.80;;;;;;;12.24;62.84;101746.59;5080480;28;20206;-72
2022/04/16 03:21:33;;;;;;;8.40;4.50;;;;;;;12.27;62.81;101749.00;5084236;28;20274;-73
2022/04/16 03:24:00;;;;;;;6.77;4.70;;;;;;;12.40;62.55;101749.66;5085274;28;20223;-73
2022/04/16 03:26:28;;;;;;;6.13;4.20;;;;;;;12.62;62.11;101745.19;5085222;28;20212;-74
2022/04/16 03:28:56;;;;;;;7.83;5.00;;;;;;;12.70;61.81;101745.38;5085095;28;20297;-73
2022/04/16 03:31:24;;;;;;;7.53;5.20;;;;;;;12.52;62.50;101753.09;5086484;28;20625;-73
2022/04/16 03:33:52;;;;;;;7.80;5.10;;;;;;;12.58;62.38;101757.03;5084534;28;20245;-73
2022/04/16 03:36:19;;;;;;;7.53;4.60;;;;;;;12.75;61.76;101754.63;5084378;28;20221;-73
2022/04/16 03:38:49;;;;;;;9.43;5.30;;;;;;;12.76;61.99;101756.34;5083028;28;21042;-73
2022/04/16 03:41:16;;;;;;;7.30;5.07;;;;;;;12.78;61.33;101742.91;5089937;28;20252;-73
2022/04/16 03:43:44;;;;;;;9.67;5.00;;;;;;;12.74;62.09;101752.13;5084632;28;20210;-73
2022/04/16 03:46:12;;;;;;;8.30;4.93;;;;;;;12.79;61.77;101748.09;5082768;28;20289;-73
2022/04/16 03:48:40;;;;;;;9.00;5.03;;;;;;;12.74;62.04;101752.13;5080094;28;20214;-73
2022/04/16 03:51:09;;;;;;;6.73;5.10;;;;;;;12.56;63.01;101751.03;5085695;28;20211;-73
2022/04/16 03:53:37;;;;;;;15.00;5.30;;;;;;;12.62;62.51;101753.16;5086048;28;20781;-73
2022/04/16 04:01:38;;;;;;;5.83;4.77;;;;;;;12.67;62.53;101758.94;5085755;28;20655;-73
2022/04/16 04:04:06;;;;;;;8.17;5.17;;;;;;;12.72;62.21;101760.25;5081660;28;20222;-73
2022/04/16 04:06:34;;;;;;;8.53;5.20;;;;;;;12.59;62.71;101756.06;5085060;28;20207;-72
2022/04/16 04:09:02;;;;;;;8.03;5.80;;;;;;;12.59;62.82;101761.41;5085837;28;20637;-73
2022/04/16 04:11:31;;;;;;;9.77;5.57;;;;;;;12.62;62.65;101763.81;5085522;28;20203;-73
2022/04/16 04:13:59;;;;;;;7.97;5.67;;;;;;;12.66;62.47;101758.13;5084982;28;20298;-74
2022/04/16 04:16:27;;;;;;;7.13;5.30;;;;;;;12.63;62.63;101760.19;5091196;28;20199;-75
2022/04/16 04:18:55;;;;;;;8.70;6.20;;;;;;;12.21;64.21;101759.31;5088219;28;20598;-74
2022/04/16 04:21:23;;;;;;;8.47;6.20;;;;;;;12.57;62.78;101763.38;5088106;28;21007;-72
2022/04/16 04:23:50;;;;;;;7.83;6.20;;;;;;;12.62;62.46;101755.84;5086311;28;20266;-72
2022/04/16 04:26:18;;;;;;;9.13;5.37;;;;;;;12.65;62.58;101764.41;5086308;28;20678;-73
2022/04/16 04:28:48;;;;;;;11.43;6.10;;;;;;;12.61;62.74;101759.47;5086271;28;20214;-73
2022/04/16 04:31:16;;;;;;;8.93;5.93;;;;;;;12.59;63.35;101774.72;5085276;28;20210;-72
2022/04/16 04:33:43;;;;;;;9.20;6.00;;;;;;;12.53;63.74;101772.56;5086483;28;20203;-73
2022/04/16 04:36:11;;;;;;;11.07;6.07;;;;;;;12.54;63.23;101767.13;5085828;28;20569;-73
2022/04/16 04:38:39;;;;;;;8.67;6.20;;;;;;;12.50;62.99;101764.84;5085168;28;20222;-73
2022/04/16 04:41:07;;;;;;;8.80;6.13;;;;;;;12.54;63.52;101771.59;5086885;28;20302;-73
2022/04/16 04:43:34;;;;;;;11.37;6.27;;;;;;;12.58;63.42;101773.88;5086427;28;20285;-73
2022/04/16 04:46:04;;;;;;;8.53;6.10;;;;;;;12.52;63.84;101777.03;5088786;28;20211;-73
2022/04/16 04:48:31;;;;;;;9.53;6.03;;;;;;;12.54;63.75;101779.59;5086208;28;20240;-73
2022/04/16 04:50:59;;;;;;;7.73;5.67;;;;;;;12.55;63.19;101779.47;5088113;28;20581;-74
2022/04/16 04:53:27;;;;;;;9.07;6.53;;;;;;;12.53;63.93;101778.75;5083727;28;20219;-74
2022/04/16 04:55:55;;;;;;;11.10;6.50;;;;;;;12.52;64.45;101781.53;5084701;28;20253;-73
2022/04/16 04:58:22;;;;;;;10.13;6.50;;;;;;;12.57;63.49;101782.00;5089107;28;20284;-73
2022/04/16 05:00:50;;;;;;;12.33;6.40;;;;;;;12.56;63.85;101785.63;5085591;28;20274;-73
2022/04/16 05:03:19;;;;;;;8.70;6.10;;;;;;;12.63;63.72;101789.47;5081698;28;20298;-72
2022/04/16 05:05:47;;;;;;;9.70;6.20;;;;;;;12.67;63.60;101791.72;5084677;28;20207;-72
2022/04/16 05:08:15;;;;;;;8.33;5.70;;;;;;;12.69;63.72;101794.25;5086996;28;20640;-72
2022/04/16 05:10:43;;;;;;;8.90;5.97;;;;;;;12.70;63.42;101798.59;5089786;28;20203;-73
2022/04/16 05:13:11;;;;;;;10.27;6.67;;;;;;;12.64;63.72;101794.66;5089853;28;20213;-73
2022/04/16 05:15:38;;;;;;;11.20;6.83;;;;;;;12.70;64.02;101794.13;5091051;28;20239;-73
2022/04/16 05:18:06;;;;;;;8.97;6.70;;;;;;;12.66;63.83;101802.50;5090547;28;21637;-72
2022/04/16 05:20:36;;;;;;;12.00;6.93;;;;;;;12.75;63.28;101802.56;5088946;28;20200;-72
2022/04/16 05:23:04;;;;;;;13.27;7.97;;;;;;;12.66;63.67;101803.34;5089245;28;20209;-72
2022/04/16 05:25:31;;;;;;;9.87;6.87;;;;;;;12.61;63.70;101800.22;5089600;28;20303;-73
2022/04/16 05:27:59;;;;;;;12.37;7.07;;;;;;;12.58;64.77;101796.97;5088890;28;20203;-74
2022/04/16 05:30:33;;;;;;;10.67;7.37;;;;;;;12.72;63.81;101804.66;5081906;28;20273;-72
2022/04/16 05:33:05;;;;;;;11.67;7.10;;;;;;;12.66;64.33;101814.00;5090645;28;20222;-72
2022/04/16 05:35:33;;;;;;;11.33;7.23;;;;;;;12.76;64.17;101811.38;5089086;28;20215;-71
2022/04/16 05:38:02;;;;;;;10.27;7.37;;;;;;;12.82;63.88;101801.09;5086842;28;20346;-72
2022/04/16 05:40:30;;;;;;;11.30;7.20;;;;;;;12.79;64.35;101805.81;5080701;28;20207;-72
2022/04/16 05:42:58;;;;;;;10.33;7.33;;;;;;;12.88;63.69;101807.69;5091814;28;20228;-73
2022/04/16 05:45:26;;;;;;;12.00;7.40;;;;;;;12.87;63.66;101811.31;5091920;28;20238;-71
2022/04/16 05:47:53;;;;;;;9.27;6.67;;;;;;;12.85;63.77;101809.75;5089419;28;20344;-72
2022/04/16 05:50:21;;;;;;;10.53;6.23;;;;;;;12.95;63.53;101811.50;5087839;28;20677;-73
2022/04/16 05:52:52;;;;;;;11.70;7.17;;;;;;;12.84;63.83;101814.25;5087655;28;20204;-72
2022/04/16 05:55:21;;;;;;;11.87;7.07;;;;;;;12.81;64.34;101817.19;5087632;28;20708;-73
2022/04/16 05:57:49;;;;;;;13.90;6.63;;;;;;;12.80;64.39;101816.34;5088015;28;20266;-73
2022/04/16 06:00:17;;;;;;;10.00;6.57;;;;;;;12.78;64.36;101823.59;5086691;28;20283;-72
2022/04/16 06:02:46;;;;;;;10.60;7.23;;;;;;;12.84;63.94;101827.53;5086860;28;20332;-72
2022/04/16 06:05:13;;;;;;;12.07;6.70;;;;;;;12.69;64.36;101843.00;5088673;28;20203;-72
2022/04/16 06:07:41;;;;;;;10.93;6.07;;;;;;;12.78;64.29;101833.41;5087420;28;20210;-72
2022/04/16 06:10:10;;;;;;;8.03;5.60;;;;;;;12.93;63.49;101836.59;5084149;28;20333;-72
2022/04/16 06:12:42;;;;;;;7.47;5.60;;;;;;;12.99;63.63;101844.06;5090629;28;20202;-73
2022/04/16 06:15:10;;;;;;;8.13;5.30;;;;;;;13.06;63.41;101845.22;5089598;28;20328;-73
2022/04/16 06:17:38;;;;;;;8.30;5.67;;;;;;;12.95;63.76;101847.94;5087547;28;20673;-74
2022/04/16 06:20:08;;;;;;;9.73;6.17;;;;;;;12.79;63.66;101857.22;5087482;28;20512;-73
2022/04/16 06:22:36;;;;;;;8.13;5.53;;;;;;;12.44;65.08;101857.50;5090157;28;20340;-73
2022/04/16 06:25:05;;;;;;;9.13;5.90;;;;;;;12.64;64.39;101863.00;5085094;28;20246;-73
2022/04/16 06:27:35;;;;;;;10.50;5.47;;;;;;;12.71;64.11;101854.38;5086051;28;20273;-73
2022/04/16 06:30:05;;;;;;;8.27;5.67;;;;;;;12.78;63.75;101865.34;5081931;28;20270;-73
2022/04/16 06:32:34;;;;;;;8.50;5.67;;;;;;;12.84;63.60;101859.50;5082341;28;20246;-73
2022/04/16 06:35:05;;;;;;;8.37;5.17;;;;;;;12.80;63.93;101864.25;5081454;28;20634;-73
2022/04/16 06:37:33;;;;;;;7.33;4.93;;;;;;;12.53;64.81;101857.72;5086261;28;20330;-73
2022/04/16 06:40:02;;;;;;;10.50;5.53;;;;;;;12.65;64.51;101864.69;5086178;28;20227;-73
2022/04/16 06:42:31;;;;;;;11.00;5.40;;;;;;;12.86;63.65;101860.22;5086265;28;20209;-74
2022/04/16 06:44:59;;;;;;;8.33;5.77;;;;;;;12.87;63.70;101880.53;5084836;28;20625;-73
2022/04/16 06:47:29;;;;;;;6.57;4.77;;;;;;;13.11;62.62;101872.28;5086638;28;20244;-74
2022/04/16 06:49:57;;;;;;;9.17;5.67;;;;;;;13.23;62.70;101870.44;5082364;28;20366;-74
2022/04/16 06:52:25;;;;;;;10.83;4.93;;;;;;;12.48;65.36;101883.88;5085253;28;20208;-74
2022/04/16 06:54:54;;;;;;;10.07;5.33;;;;;;;12.96;63.98;101874.44;5087483;28;20236;-73
2022/04/16 06:57:21;;;;;;;7.17;5.07;;;;;;;13.14;63.27;101880.91;5086784;28;20220;-72
2022/04/16 06:59:49;;;;;;;9.93;5.17;;;;;;;13.31;62.85;101879.47;5087328;28;20225;-73
2022/04/16 07:02:17;;;;;;;8.07;5.07;;;;;;;13.17;63.15;101872.66;5083457;28;20205;-73
2022/04/16 07:04:47;;;;;;;7.73;5.03;;;;;;;13.26;63.11;101875.53;5087618;28;20667;-73
2022/04/16 07:07:14;;;;;;;7.63;5.27;;;;;;;13.46;62.10;101888.78;5084524;28;20277;-73
2022/04/16 07:09:43;;;;;;;8.50;5.20;;;;;;;13.27;62.71;101886.06;5084333;28;20732;-72
2022/04/16 07:12:12;;;;;;;7.87;5.10;;;;;;;13.40;62.17;101884.00;5086980;28;20255;-73
2022/04/16 07:14:40;;;;;;;7.80;4.47;;;;;;;13.13;61.98;101889.88;5087713;28;20632;-72
2022/04/16 07:17:08;;;;;;;6.87;4.43;;;;;;;13.14;62.26;101888.91;5083119;28;20209;-73
2022/04/16 07:19:37;;;;;;;6.40;4.47;;;;;;;13.23;61.90;101887.28;5084973;28;20744;-73
2022/04/16 07:22:06;;;;;;;7.97;4.27;;;;;;;13.60;60.25;101892.94;5084811;28;20225;-73
2022/04/16 07:24:37;;;;;;;7.07;4.27;;;;;;;13.55;58.91;101893.34;5083423;28;20238;-73
2022/04/16 07:27:06;;;;;;;7.33;4.10;;;;;;;13.57;59.10;101887.88;5089375;28;20241;-73
2022/04/16 07:29:34;;;;;;;8.40;4.20;;;;;;;13.88;58.32;101886.91;5086264;28;20234;-73
2022/04/16 07:32:02;;;;;;;5.63;3.83;;;;;;;13.93;57.64;101890.00;5083322;28;20201;-73
2022/04/16 07:34:29;;;;;;;6.20;3.60;;;;;;;13.57;58.10;101890.53;5084126;28;20238;-73
2022/04/16 07:36:57;;;;;;;5.03;3.70;;;;;;;13.85;57.61;101891.66;5083172;28;20216;-71
2022/04/16 07:39:26;;;;;;;5.67;3.43;;;;;;;13.69;57.51;101891.31;5086087;28;20290;-73
2022/04/16 07:41:54;;;;;;;7.73;3.83;;;;;;;13.87;57.69;101893.22;5085506;28;20737;-74
2022/04/16 07:44:22;;;;;;;6.80;3.57;;;;;;;13.91;56.94;101893.75;5084424;28;20301;-73
2022/04/16 07:46:51;;;;;;;5.47;3.33;;;;;;;14.06;56.65;101896.91;5085176;28;20218;-74
2022/04/16 07:49:20;;;;;;;5.60;3.30;;;;;;;14.14;56.46;101900.59;5087429;28;20206;-73
2022/04/16 07:51:48;;;;;;;7.27;3.13;;;;;;;14.24;55.16;101901.47;5090196;28;20720;-72
2022/04/16 07:54:17;;;;;;;4.83;3.10;;;;;;;14.44;54.95;101898.84;5090479;28;20325;-73
2022/04/16 07:56:46;;;;;;;5.33;3.20;;;;;;;14.30;55.54;101900.06;5091198;28;20274;-73
2022/04/16 07:59:14;;;;;;;5.28;3.15;;;;;;;14.42;54.37;101901.66;5086175;28;20457;-66
2022/04/16 08:01:41;;;;;;;6.03;2.67;;;;;;;14.49;55.65;101902.78;5086673;28;20199;-66
2022/04/16 08:04:09;;;;;;;5.53;3.30;;;;;;;14.60;54.84;101904.50;5087610;28;20217;-68
2022/04/16 08:06:37;;;;;;;8.70;2.70;;;;;;;14.86;53.68;101902.94;5087826;28;20293;-68
2022/04/16 08:09:05;;;;;;;5.70;2.53;;;;;;;15.03;54.21;101899.56;5084780;28;20218;-70
2022/04/16 08:11:34;;;;;;;4.57;2.57;;;;;;;14.85;52.40;101900.41;5087743;28;20199;-69
2022/04/16 08:14:06;;;;;;;4.00;2.67;;;;;;;15.04;52.28;101903.03;5084075;28;20221;-69
2022/04/16 08:16:34;;;;;;;3.97;2.50;;;;;;;15.27;52.71;101915.13;5085717;28;20561;-70
2022/04/16 08:19:01;;;;;;;4.80;2.87;;;;;;;15.11;50.87;101917.56;5084170;28;20214;-69
2022/04/16 08:21:30;;;;;;;12.50;2.33;;;;;;;14.89;50.48;101909.81;5085770;28;20203;-70
2022/04/16 08:24:04;;;;;;;5.23;2.53;;;;;;;15.20;51.53;101916.69;5085186;28;20322;-70
2022/04/16 08:26:32;;;;;;;3.53;2.53;;;;;;;14.68;51.24;101908.16;5089699;28;20210;-70
2022/04/16 08:29:00;;;;;;;4.27;2.40;;;;;;;15.01;51.10;101909.53;5089850;28;20211;-68
2022/04/16 08:31:29;;;;;;;3.60;2.37;;;;;;;15.25;50.72;101913.56;5089045;28;20219;-70
2022/04/16 08:33:57;;;;;;;3.13;1.73;;;;;;;15.53;49.61;101912.66;5091178;28;20302;-70
2022/04/16 08:36:25;;;;;;;2.10;1.00;;;;;;;15.60;47.32;101920.97;5087651;28;20199;-68
2022/04/16 08:38:52;;;;;;;2.67;1.57;;;;;;;15.17;45.92;101914.28;5084536;28;20230;-69
2022/04/16 08:41:20;;;;;;;3.30;1.50;;;;;;;15.56;46.75;101915.09;5086926;28;20309;-69
2022/04/16 08:43:49;;;;;;;2.53;1.50;;;;;;;15.64;46.04;101915.22;5088086;28;20239;-70
2022/04/16 08:46:17;;;;;;;2.30;1.50;;;;;;;15.69;46.54;101917.44;5087206;28;20643;-69
2022/04/16 08:48:50;;;;;;;3.27;1.47;;;;;;;15.85;45.89;101925.66;5084504;28;20290;-70
2022/04/16 08:51:18;;;;;;;3.57;1.70;;;;;;;15.24;46.00;101928.75;5085334;28;20812;-69
2022/04/16 08:53:46;;;;;;;3.37;1.70;;;;;;;15.55;46.67;101926.78;5085876;28;20265;-69
2022/04/16 08:56:14;;;;;;;6.10;1.60;;;;;;;15.76;46.21;101926.53;5085908;28;20278;-69
2022/04/16 08:58:42;;;;;;;4.67;2.40;;;;;;;15.43;47.11;101928.72;5084184;28;20207;-70
2022/04/16 09:01:11;;;;;;;3.57;2.23;;;;;;;15.95;47.17;101923.78;5083979;28;20790;-69
2022/04/16 09:03:40;;;;;;;2.83;1.70;;;;;;;15.86;45.22;101929.19;5082195;28;20241;-69
2022/04/16 09:06:21;;;;;;;4.13;2.07;;;;;;;15.92;45.85;101920.59;5083844;28;20210;-68
2022/04/16 09:08:49;;;;;;;5.73;2.03;;;;;;;16.06;46.02;101925.44;5084604;28;20691;-69
2022/04/16 09:11:21;;;;;;;4.47;2.77;;;;;;;15.98;47.29;101936.88;5084794;28;21879;-69
2022/04/16 09:13:53;;;;;;;4.70;2.53;;;;;;;16.38;46.56;101936.50;5082679;28;20210;-69
2022/04/16 09:16:22;;;;;;;3.63;2.43;;;;;;;16.74;45.48;101940.09;5087919;28;20234;-69
2022/04/16 09:18:52;;;;;;;4.60;2.80;;;;;;;16.62;45.42;101938.66;5081990;28;20821;-69
2022/04/16 09:21:25;;;;;;;3.90;2.23;;;;;;;16.31;45.54;101945.31;5085741;28;20321;-70
2022/04/16 09:23:57;;;;;;;3.77;2.20;;;;;;;16.03;46.30;101942.63;5082294;28;20203;-68
2022/04/16 09:26:26;;;;;;;4.97;1.93;;;;;;;15.87;46.48;101946.91;5085267;28;20654;-68
2022/04/16 09:28:54;;;;;;;5.10;2.53;;;;;;;16.27;45.31;101944.75;5086860;28;20234;-68
2022/04/16 09:31:29;;;;;;;4.83;2.13;;;;;;;15.95;45.69;101955.06;5083613;28;20298;-69
2022/04/16 09:33:57;;;;;;;4.90;2.23;;;;;;;16.31;45.28;101951.50;5084278;28;20213;-68
2022/04/16 09:36:27;;;;;;;9.87;2.53;;;;;;;16.33;46.18;101948.69;5086799;28;20217;-69
2022/04/16 09:39:02;;;;;;;4.63;2.70;;;;;;;16.23;44.93;101943.38;5083788;28;20640;-68
2022/04/16 09:41:38;;;;;;;5.50;2.20;;;;;;;16.01;45.00;101949.09;5088420;28;20238;-69
2022/04/16 09:44:17;;;;;;;3.40;2.20;;;;;;;15.42;45.77;101959.13;5086128;28;20198;-69
2022/04/16 09:46:51;;;;;;;4.20;2.50;;;;;;;15.34;46.41;101958.16;5087231;28;20655;-68
2022/04/16 09:49:19;;;;;;;3.50;2.07;;;;;;;16.41;44.84;101962.16;5087582;28;20211;-68
2022/04/16 09:51:49;;;;;;;5.57;2.00;;;;;;;16.29;44.57;101955.31;5088909;28;20199;-67
2022/04/16 09:54:19;;;;;;;3.77;2.20;;;;;;;16.24;45.55;101966.47;5082111;28;20306;-72
2022/04/16 09:56:48;;;;;;;5.97;2.20;;;;;;;15.89;45.31;101963.69;5085098;28;20448;-67
2022/04/16 09:59:17;;;;;;;6.63;2.13;;;;;;;15.67;45.16;101962.19;5085281;28;20238;-68
2022/04/16 10:01:48;;;;;;;3.97;2.30;;;;;;;15.75;44.96;101955.13;5087156;28;20321;-68
2022/04/16 10:04:17;;;;;;;6.13;2.90;;;;;;;15.96;45.54;101967.44;5086321;28;20203;-68
2022/04/16 10:06:46;;;;;;;5.87;2.63;;;;;;;15.72;45.73;101970.63;5083218;28;20208;-67
2022/04/16 10:09:17;;;;;;;3.37;2.30;;;;;;;15.82;45.29;101966.09;5087751;28;20579;-64
2022/04/16 10:14:42;;;;;;;4.17;2.00;;;;;;;16.97;43.72;101969.97;5086379;28;20284;-68
2022/04/16 10:17:23;;;;;;;3.80;2.20;;;;;;;18.76;40.17;101961.09;5085997;28;20211;-69
2022/04/16 10:19:54;;;;;;;3.97;2.10;;;;;;;18.46;38.97;101964.38;5083298;28;20733;-68
2022/04/16 10:22:24;;;;;;;2.93;1.93;;;;;;;21.64;34.22;101955.88;5082263;28;20213;-68
2022/04/16 10:24:57;;;;;;;3.93;2.00;;;;;;;18.18;39.13;101958.41;5082566;28;20230;-68
2022/04/16 10:27:27;;;;;;;2.70;1.80;;;;;;;25.48;27.76;101953.94;5083199;28;20250;-67
2022/04/16 10:29:58;;;;;;;3.30;1.90;;;;;;;20.67;33.92;101956.69;5081850;28;20635;-66
2022/04/16 10:32:38;;;;;;;4.37;1.67;;;;;;;25.67;27.95;101944.97;5083540;28;20672;-66
2022/04/16 10:35:12;;;;;;;3.73;1.97;;;;;;;19.31;34.94;101944.31;5091138;28;20306;-66
2022/04/16 10:37:41;;;;;;;3.80;2.23;;;;;;;18.26;37.39;101956.59;5085634;28;20207;-67
2022/04/16 10:40:18;;;;;;;4.10;2.10;;;;;;;19.75;34.95;101951.00;5082705;28;20238;-67
2022/04/16 10:42:50;;;;;;;3.73;2.10;;;;;;;25.73;27.83;101943.28;5082550;28;20903;-67
2022/04/16 10:45:20;;;;;;;7.53;2.30;;;;;;;26.23;26.28;101936.19;5082856;28;20225;-67
2022/04/16 10:47:50;;;;;;;4.63;2.40;;;;;;;22.76;30.63;101950.13;5084663;28;20305;-67
2022/04/16 10:50:20;;;;;;;2.97;1.90;;;;;;;25.83;27.24;101930.91;5082959;28;21903;-67
2022/04/16 10:52:55;;;;;;;4.20;2.07;;;;;;;24.04;29.49;101932.75;5082876;28;20301;-66
2022/04/16 10:55:30;;;;;;;4.73;1.77;;;;;;;24.30;28.38;101935.59;5081064;28;20238;-67
2022/04/16 10:58:03;;;;;;;5.80;2.00;;;;;;;30.00;23.48;101925.97;5084057;28;20244;-67
2022/04/16 11:00:40;;;;;;;3.07;1.90;;;;;;;32.69;19.67;101916.41;5083308;28;20233;-67
2022/04/16 11:03:12;;;;;;;2.72;1.65;;;;;;;31.68;19.75;101905.91;5082126;28;20244;-69
2022/04/16 11:05:41;;;;;;;2.78;1.40;;;;;;;31.92;20.30;101919.41;5084412;28;20203;-68
2022/04/16 11:08:11;;;;;;;2.70;1.38;;;;;;;30.42;19.71;101917.50;5079644;28;20544;-67
2022/04/16 11:10:41;;;;;;;2.10;1.35;;;;;;;30.26;20.61;101919.91;5084844;28;20202;-68
2022/04/16 11:13:10;;;;;;;2.60;1.38;;;;;;;33.01;17.72;101911.75;5083872;28;20301;-68
2022/04/16 11:15:38;;;;;;;2.95;1.50;;;;;;;34.71;16.71;101913.91;5083674;28;20217;-70
2022/04/16 11:18:05;;;;;;;2.83;1.65;;;;;;;30.72;19.25;101912.59;5083921;28;20513;-66
2022/04/16 11:20:33;;;;;;;2.38;1.40;;;;;;;31.87;18.85;101917.41;5077212;28;20663;-66
2022/04/16 11:23:01;;;;;;;2.53;1.58;;;;;;;34.79;16.54;101901.56;5081696;28;20202;-66
2022/04/16 11:34:14;;;;;;;3.65;1.40;;;;;;;34.76;16.21;101910.34;5084035;28;20648;-66
2022/04/16 11:34:18;;;;;;;1.83;1.52;;;;;;;31.91;19.58;101901.28;5086745;28;20286;-65
2022/04/16 11:36:50;;;;;;;2.83;1.70;;;;;;;30.12;21.41;101904.06;5088494;28;20230;-66
2022/04/16 11:39:21;;;;;;;3.13;1.48;;;;;;;29.93;20.89;101898.72;5085240;28;20262;-66
2022/04/16 11:41:54;;;;;;;2.92;1.42;;;;;;;30.33;20.41;101899.81;5083005;28;20593;-66
2022/04/16 11:44:34;;;;;;;2.30;1.70;;;;;;;29.10;22.25;101911.88;5086712;28;20686;-66
2022/04/16 11:47:02;;;;;;;2.08;1.35;;;;;;;26.84;21.94;101909.28;5084594;28;20210;-67
2022/04/16 11:49:31;;;;;;;2.15;1.48;;;;;;;25.28;23.62;101910.50;5083367;28;20310;-67
2022/04/16 11:51:59;;;;;;;3.08;1.40;;;;;;;26.08;24.84;101903.84;5085080;28;20205;-66
2022/04/16 11:54:29;;;;;;;2.67;1.38;;;;;;;27.61;23.13;101901.72;5084634;28;20336;-66